Time;durP1;ratioP1;P1;durP2;ratioP2;P2;SDS_P1;SDS_P2;PMS_P1;PMS_P2;Temp;Humidity;BMP_temperature;BMP_pressure;BME280_temperature;BME280_humidity;BME280_pressure;Samples;Min_cycle;Max_cycle;Signal;HPM_P1;HPM_P2
2021/12/20 00:00:23;;;;;;;151.27;32.92;;;-1.00;99.90;;;;;;5016463;28;20519;-67
2021/12/20 00:02:56;;;;;;;171.05;28.60;;;-1.00;99.90;;;;;;5016176;28;20416;-67
2021/12/20 00:05:24;;;;;;;91.22;28.73;;;-1.00;99.90;;;;;;5016649;28;20038;-67
2021/12/20 00:07:51;;;;;;;382.38;37.03;;;-1.00;99.90;;;;;;5015630;28;20049;-68
2021/12/20 00:10:19;;;;;;;336.52;37.53;;;-1.00;99.90;;;;;;5016285;28;20045;-67
2021/12/20 00:12:46;;;;;;;100.10;26.90;;;-1.10;99.90;;;;;;5014426;28;20041;-68
2021/12/20 00:15:13;;;;;;;70.35;27.85;;;-1.10;99.90;;;;;;5016124;28;20545;-67
2021/12/20 00:17:40;;;;;;;152.57;28.08;;;-1.10;99.90;;;;;;5015534;28;20041;-67
2021/12/20 00:20:07;;;;;;;134.95;25.42;;;-1.10;99.90;;;;;;4997286;28;20046;-68
2021/12/20 00:22:34;;;;;;;49.13;23.10;;;-1.10;99.90;;;;;;4996503;28;20803;-67
2021/12/20 00:25:02;;;;;;;90.85;24.90;;;-1.10;99.90;;;;;;4996026;28;20104;-67
2021/12/20 00:27:29;;;;;;;45.28;22.30;;;-1.10;99.90;;;;;;4997222;28;20038;-67
2021/12/20 00:29:56;;;;;;;45.75;21.98;;;-1.10;99.90;;;;;;4994062;28;20050;-67
2021/12/20 00:32:22;;;;;;;177.27;27.10;;;-1.10;99.90;;;;;;5011443;28;20119;-68
2021/12/20 00:34:49;;;;;;;66.60;22.67;;;-1.10;99.90;;;;;;4995908;28;20069;-67
2021/12/20 00:40:22;;;;;;;162.00;22.65;;;-1.10;99.90;;;;;;4995529;28;20054;-67
2021/12/20 00:42:53;;;;;;;238.00;26.02;;;-1.10;99.90;;;;;;4995584;28;20192;-67
2021/12/20 00:45:22;;;;;;;42.72;20.00;;;-1.10;99.90;;;;;;4996086;28;20346;-67
2021/12/20 00:47:48;;;;;;;52.28;20.80;;;-1.10;99.90;;;;;;4995444;28;20042;-67
2021/12/20 00:50:17;;;;;;;353.52;32.63;;;-1.20;99.90;;;;;;5007611;28;20060;-67
2021/12/20 00:52:45;;;;;;;64.88;21.85;;;-1.20;99.90;;;;;;5014648;28;20081;-67
2021/12/20 00:55:16;;;;;;;102.15;23.73;;;-1.20;99.90;;;;;;5015569;28;20463;-67
2021/12/20 00:57:43;;;;;;;48.53;21.00;;;-1.20;99.90;;;;;;5015759;28;20325;-67
2021/12/20 01:00:11;;;;;;;117.03;23.38;;;-1.20;99.90;;;;;;5014705;28;20050;-67
2021/12/20 01:02:38;;;;;;;64.35;22.95;;;-1.30;99.90;;;;;;5013728;28;20046;-67
2021/12/20 01:05:06;;;;;;;106.15;24.25;;;-1.30;99.90;;;;;;5015017;28;20042;-67
2021/12/20 01:07:33;;;;;;;91.78;22.42;;;-1.30;99.90;;;;;;5014947;28;20041;-67
2021/12/20 01:10:03;;;;;;;98.70;21.45;;;-1.30;99.90;;;;;;5014246;28;20512;-67
2021/12/20 01:12:40;;;;;;;70.05;22.92;;;-1.40;99.90;;;;;;5015448;28;20564;-67
2021/12/20 01:15:10;;;;;;;192.13;24.73;;;-1.40;99.90;;;;;;5015378;28;20072;-68
2021/12/20 01:17:37;;;;;;;74.88;23.30;;;-1.40;99.90;;;;;;5014832;28;20191;-67
2021/12/20 01:20:06;;;;;;;96.03;22.95;;;-1.40;99.90;;;;;;5014027;28;20049;-66
2021/12/20 01:22:32;;;;;;;117.43;24.63;;;-1.40;99.90;;;;;;5014333;28;20509;-67
2021/12/20 01:24:59;;;;;;;79.28;22.23;;;-1.40;99.90;;;;;;5015486;28;20537;-68
2021/12/20 01:27:26;;;;;;;80.07;21.58;;;-1.50;99.90;;;;;;5014874;28;20571;-67
2021/12/20 01:29:53;;;;;;;63.78;21.38;;;-1.40;99.90;;;;;;5017538;28;20123;-67
2021/12/20 01:32:19;;;;;;;;;;;-1.50;99.90;;;;;;5019620;28;20045;-67
2021/12/20 01:34:46;;;;;;;123.10;23.27;;;-1.40;99.90;;;;;;5019135;28;19964;-67
2021/12/20 01:37:13;;;;;;;69.25;22.20;;;-1.40;99.90;;;;;;5016666;28;20211;-67
2021/12/20 01:39:40;;;;;;;49.58;19.42;;;-1.40;99.90;;;;;;5006109;28;20046;-67
2021/12/20 01:42:07;;;;;;;;;;;-1.40;99.90;;;;;;5012266;28;20488;-67
2021/12/20 01:44:33;;;;;;;48.00;21.75;;;-1.50;99.90;;;;;;5018345;28;20277;-67
2021/12/20 01:47:02;;;;;;;93.20;22.23;;;-1.40;99.90;;;;;;5018941;28;20033;-67
2021/12/20 01:49:32;;;;;;;68.75;21.42;;;-1.40;99.90;;;;;;5017894;28;20076;-67
2021/12/20 01:54:27;;;;;;;48.28;20.80;;;-1.40;99.90;;;;;;5018562;28;20073;-66
2021/12/20 01:56:54;;;;;;;50.72;22.05;;;-1.50;99.90;;;;;;5018191;28;20045;-67
2021/12/20 01:59:20;;;;;;;;;;;-1.40;99.90;;;;;;5017163;28;20458;-68
2021/12/20 02:01:48;;;;;;;54.10;21.80;;;-1.40;99.90;;;;;;5018413;28;19925;-67
2021/12/20 02:04:15;;;;;;;64.57;22.45;;;-1.40;99.90;;;;;;5016841;28;20045;-67
2021/12/20 02:06:47;;;;;;;59.42;23.23;;;-1.40;99.90;;;;;;5017231;28;20060;-67
2021/12/20 02:09:19;;;;;;;64.07;24.50;;;-1.40;99.90;;;;;;5016213;28;20148;-66
2021/12/20 02:11:48;;;;;;;57.03;22.63;;;-1.40;99.90;;;;;;5018474;28;20465;-66
2021/12/20 02:14:17;;;;;;;54.30;21.83;;;-1.40;99.90;;;;;;5018035;28;20407;-67
2021/12/20 02:16:44;;;;;;;50.08;18.83;;;-1.40;99.90;;;;;;5018270;28;20239;-67
2021/12/20 02:19:16;;;;;;;50.28;19.15;;;-1.40;99.90;;;;;;5006500;28;20089;-66
2021/12/20 02:21:44;;;;;;;57.28;20.38;;;-1.40;99.90;;;;;;4998436;28;20045;-65
2021/12/20 02:24:12;;;;;;;53.75;20.70;;;-1.30;99.90;;;;;;4997586;28;20455;-66
2021/12/20 02:26:39;;;;;;;46.85;20.10;;;-1.30;99.90;;;;;;4998614;28;20092;-67
2021/12/20 02:29:08;;;;;;;56.05;20.15;;;-1.30;99.90;;;;;;4996968;28;20091;-67
2021/12/20 02:39:54;;;;;;;61.70;22.20;;;-1.30;99.90;;;;;;4996670;28;20057;-67
2021/12/20 02:42:26;;;;;;;58.30;22.83;;;-1.30;99.90;;;;;;4997811;28;20069;-68
2021/12/20 02:45:31;;;;;;;52.67;19.63;;;-1.20;99.90;;;;;;4997648;28;20045;-67
2021/12/20 02:47:48;;;;;;;57.65;19.65;;;-1.20;99.90;;;;;;4994676;28;20112;-67
2021/12/20 02:50:15;;;;;;;47.53;20.70;;;-1.20;99.90;;;;;;5009435;28;20045;-67
2021/12/20 02:52:43;;;;;;;43.33;19.95;;;-1.20;99.90;;;;;;5016670;28;20049;-67
2021/12/20 02:55:11;;;;;;;47.15;20.05;;;-1.20;99.90;;;;;;5017334;28;20037;-66
2021/12/20 02:57:38;;;;;;;42.50;16.88;;;-1.20;99.90;;;;;;5018145;28;20195;-66
2021/12/20 03:00:08;;;;;;;39.85;17.52;;;-1.20;99.90;;;;;;5016272;28;20532;-67
2021/12/20 03:02:34;;;;;;;31.50;14.70;;;-1.20;99.90;;;;;;5017889;28;20050;-67
2021/12/20 03:05:02;;;;;;;38.47;16.05;;;-1.20;99.90;;;;;;5016328;28;20080;-67
2021/12/20 03:07:31;;;;;;;43.80;18.00;;;-1.20;99.90;;;;;;5017614;28;20029;-67
2021/12/20 03:10:02;;;;;;;52.25;21.85;;;-1.20;99.90;;;;;;5016355;28;20143;-68
2021/12/20 03:12:32;;;;;;;43.17;19.42;;;-1.20;99.90;;;;;;5016924;28;20060;-67
2021/12/20 03:15:10;;;;;;;41.33;19.20;;;-1.20;99.90;;;;;;5016727;28;20136;-67
2021/12/20 03:17:37;;;;;;;45.15;18.77;;;-1.20;99.90;;;;;;5017754;28;20091;-67
2021/12/20 03:20:06;;;;;;;47.88;19.48;;;-1.20;99.90;;;;;;4998231;28;20038;-67
2021/12/20 03:22:33;;;;;;;48.05;19.33;;;-1.20;99.90;;;;;;4995267;28;20147;-67
2021/12/20 03:25:00;;;;;;;;;;;-1.30;99.90;;;;;;4996209;28;20475;-66
2021/12/20 03:27:26;;;;;;;;;;;-1.30;99.90;;;;;;4997877;28;20012;-67
2021/12/20 03:29:53;;;;;;;;;;;-1.30;99.90;;;;;;4996934;28;19932;-66
2021/12/20 03:32:20;;;;;;;;;;;-1.30;99.90;;;;;;4997615;28;19925;-66
2021/12/20 03:34:46;;;;;;;;;;;-1.30;99.90;;;;;;4996629;28;19925;-67
2021/12/20 03:37:13;;;;;;;;;;;-1.30;99.90;;;;;;4996575;28;20230;-66
2021/12/20 03:39:39;;;;;;;;;;;-1.30;99.90;;;;;;4997316;28;19925;-66
2021/12/20 03:42:06;;;;;;;;;;;-1.30;99.90;;;;;;4997045;28;20432;-67
2021/12/20 03:44:37;;;;;;;;;;;-1.30;99.90;;;;;;4996979;28;20302;-66
2021/12/20 03:47:04;;;;;;;;;;;-1.30;99.90;;;;;;4997161;28;20467;-66
2021/12/20 03:49:30;;;;;;;;;;;-1.30;99.90;;;;;;5002376;28;20070;-67
2021/12/20 03:51:57;;;;;;;;;;;-1.30;99.90;;;;;;5016356;28;19925;-68
2021/12/20 03:54:24;;;;;;;;;;;-1.30;99.90;;;;;;5014830;28;19968;-66
2021/12/20 03:56:50;;;;;;;;;;;-1.30;99.90;;;;;;5016910;28;20003;-67
2021/12/20 03:59:17;;;;;;;;;;;-1.30;99.90;;;;;;5015590;28;20283;-68
2021/12/20 04:01:43;;;;;;;;;;;-1.30;99.90;;;;;;5012804;28;19986;-67
2021/12/20 04:04:10;;;;;;;;;;;-1.30;99.90;;;;;;5016775;28;19921;-67
2021/12/20 04:06:37;;;;;;;;;;;-1.30;99.90;;;;;;5016479;28;20408;-66
2021/12/20 04:09:04;;;;;;;;;;;-1.30;99.90;;;;;;5016028;28;20374;-66
2021/12/20 04:11:32;;;;;;;;;;;-1.30;99.90;;;;;;5015972;28;20407;-68
2021/12/20 04:13:59;;;;;;;;;;;-1.30;99.90;;;;;;5015894;28;19986;-67
2021/12/20 04:16:26;;;;;;;;;;;-1.30;99.90;;;;;;5016168;28;19925;-66
2021/12/20 04:18:52;;;;;;;;;;;-1.30;99.90;;;;;;5007383;28;20256;-66
2021/12/20 04:21:19;;;;;;;;;;;-1.30;99.90;;;;;;4996794;28;19929;-66
2021/12/20 04:23:46;;;;;;;;;;;-1.30;99.90;;;;;;4996428;28;19933;-66
2021/12/20 04:26:12;;;;;;;;;;;-1.30;99.90;;;;;;4997053;28;20408;-68
2021/12/20 04:28:40;;;;;;;;;;;-1.30;99.90;;;;;;4995795;28;20554;-67
2021/12/20 04:31:06;;;;;;;;;;;-1.20;99.90;;;;;;4995823;28;19926;-66
2021/12/20 04:33:33;;;;;;;;;;;-1.20;99.90;;;;;;4996229;28;20352;-66
2021/12/20 04:36:00;;;;;;;;;;;-1.20;99.90;;;;;;4996263;28;20540;-66
2021/12/20 04:38:28;;;;;;;;;;;-1.20;99.90;;;;;;4996817;28;19925;-66
2021/12/20 04:40:55;;;;;;;;;;;-1.20;99.90;;;;;;4996126;28;19965;-66
2021/12/20 04:43:22;;;;;;;;;;;-1.20;99.90;;;;;;4996528;28;19929;-66
2021/12/20 04:45:48;;;;;;;;;;;-1.20;99.90;;;;;;4994773;28;20019;-67
2021/12/20 04:48:15;;;;;;;;;;;-1.20;99.90;;;;;;4995814;28;20397;-66
2021/12/20 04:50:42;;;;;;;;;;;-1.20;99.90;;;;;;5010969;28;20071;-66
2021/12/20 04:53:09;;;;;;;;;;;-1.20;99.90;;;;;;5015801;28;20425;-66
2021/12/20 04:55:35;;;;;;;;;;;-1.20;99.90;;;;;;5015685;28;19933;-66
2021/12/20 04:58:03;;;;;;;;;;;-1.20;99.90;;;;;;5015978;28;19983;-66
2021/12/20 05:00:33;;;;;;;;;;;-1.20;99.90;;;;;;5015849;28;19925;-66
2021/12/20 05:03:00;;;;;;;;;;;-1.20;99.90;;;;;;5014904;28;19932;-66
2021/12/20 05:05:28;;;;;;;;;;;-1.20;99.90;;;;;;5018435;28;19964;-66
2021/12/20 05:08:00;;;;;;;;;;;-1.20;99.90;;;;;;5020179;28;20105;-66
2021/12/20 05:10:30;;;;;;;;;;;-1.20;99.90;;;;;;5019304;28;19924;-66
2021/12/20 05:12:58;;;;;;;;;;;-1.20;99.90;;;;;;5019024;28;19925;-66
2021/12/20 05:15:26;;;;;;;;;;;-1.20;99.90;;;;;;5020008;28;20199;-66
2021/12/20 05:17:53;;;;;;;;;;;-1.20;99.90;;;;;;5019853;28;19929;-66
2021/12/20 05:20:20;;;;;;;;;;;-1.20;99.90;;;;;;5018710;28;20458;-66
2021/12/20 05:22:47;;;;;;;;;;;-1.20;99.90;;;;;;5019583;28;19929;-67
2021/12/20 05:25:14;;;;;;;;;;;-1.20;99.90;;;;;;5019244;28;20530;-66
2021/12/20 05:27:41;;;;;;;;;;;-1.20;99.90;;;;;;5019162;28;20384;-66
2021/12/20 05:30:08;;;;;;;;;;;-1.10;99.90;;;;;;5018689;28;19929;-65
2021/12/20 05:32:35;;;;;;;;;;;-1.20;99.90;;;;;;5019561;28;20478;-65
2021/12/20 05:35:03;;;;;;;;;;;-1.20;99.90;;;;;;5018750;28;19964;-64
2021/12/20 05:37:30;;;;;;;;;;;-1.20;99.90;;;;;;5018393;28;20388;-64
2021/12/20 05:40:00;;;;;;;;;;;-1.20;99.90;;;;;;5019985;28;19924;-64
2021/12/20 05:42:27;;;;;;;;;;;-1.10;99.90;;;;;;5019300;28;20523;-65
2021/12/20 05:44:55;;;;;;;;;;;-1.10;99.90;;;;;;5019380;28;19956;-64
2021/12/20 05:47:22;;;;;;;;;;;-1.10;99.90;;;;;;5019418;28;20248;-65
2021/12/20 05:49:50;;;;;;;;;;;-1.10;99.90;;;;;;5018213;28;19925;-65
2021/12/20 05:52:17;;;;;;;;;;;-1.10;99.90;;;;;;5018563;28;19925;-65
2021/12/20 05:54:44;;;;;;;;;;;-1.10;99.90;;;;;;5019188;28;19925;-64
2021/12/20 05:57:11;;;;;;;;;;;-1.10;99.90;;;;;;5018679;28;19925;-64
2021/12/20 05:59:38;;;;;;;;;;;-1.10;99.90;;;;;;5018389;28;19968;-64
2021/12/20 06:02:04;;;;;;;;;;;-1.10;99.90;;;;;;5018885;28;20090;-64
2021/12/20 06:04:31;;;;;;;;;;;-1.10;99.90;;;;;;5018299;28;20540;-64
2021/12/20 06:06:58;;;;;;;;;;;-1.10;99.90;;;;;;5019191;28;19994;-64
2021/12/20 06:09:25;;;;;;;;;;;-1.00;99.90;;;;;;5018004;28;20371;-65
2021/12/20 06:11:51;;;;;;;;;;;-1.10;99.90;;;;;;5016948;28;19932;-64
2021/12/20 06:14:18;;;;;;;;;;;-1.10;99.90;;;;;;5018699;28;19925;-64
2021/12/20 06:16:45;;;;;;;;;;;-1.10;99.90;;;;;;5017603;28;19929;-69
2021/12/20 06:19:16;;;;;;;;;;;-1.10;99.90;;;;;;5016455;28;20451;-67
2021/12/20 06:21:42;;;;;;;;;;;-1.10;99.90;;;;;;5018354;28;19925;-64
2021/12/20 06:24:09;;;;;;;;;;;-1.10;99.90;;;;;;5018192;28;19932;-64
2021/12/20 06:26:36;;;;;;;;;;;-1.10;99.90;;;;;;5017858;28;19932;-64
2021/12/20 06:29:02;;;;;;;;;;;-1.10;99.90;;;;;;5017496;28;20456;-64
2021/12/20 06:31:30;;;;;;;;;;;-1.10;99.90;;;;;;5018484;28;19971;-64
2021/12/20 06:33:56;;;;;;;;;;;-1.10;99.90;;;;;;5017714;28;19925;-64
2021/12/20 06:36:25;;;;;;;;;;;-1.10;99.90;;;;;;5018168;28;20416;-64
2021/12/20 06:38:54;;;;;;;;;;;-1.10;99.90;;;;;;5017474;28;19968;-64
2021/12/20 06:41:20;;;;;;;;;;;-1.10;99.90;;;;;;5019359;28;20543;-63
2021/12/20 06:43:48;;;;;;;;;;;-1.10;99.90;;;;;;5019158;28;20282;-64
2021/12/20 06:46:16;;;;;;;;;;;-1.10;99.90;;;;;;5019415;28;19932;-64
2021/12/20 06:48:42;;;;;;;;;;;-1.10;99.90;;;;;;5017301;28;20468;-64
2021/12/20 06:51:09;;;;;;;;;;;-1.10;99.90;;;;;;5017881;28;19931;-64
2021/12/20 06:53:36;;;;;;;;;;;-1.10;99.90;;;;;;5016354;28;19967;-64
2021/12/20 06:56:03;;;;;;;;;;;-1.10;99.90;;;;;;5017364;28;20518;-58
2021/12/20 06:58:29;;;;;;;;;;;-1.10;99.90;;;;;;5017839;28;20017;-59
2021/12/20 07:00:56;;;;;;;;;;;-1.10;99.90;;;;;;5016776;28;19931;-59
2021/12/20 07:03:23;;;;;;;;;;;-1.10;99.90;;;;;;5018032;28;20304;-56
2021/12/20 07:05:50;;;;;;;;;;;-1.10;99.90;;;;;;5016972;28;20529;-58
2021/12/20 07:08:17;;;;;;;;;;;-1.10;99.90;;;;;;5017641;28;19966;-63
2021/12/20 07:10:43;;;;;;;;;;;-1.10;99.90;;;;;;5016784;28;20577;-56
2021/12/20 07:13:10;;;;;;;;;;;-1.10;99.90;;;;;;5017367;28;19999;-57
2021/12/20 07:15:37;;;;;;;;;;;-1.10;99.90;;;;;;5016475;28;19925;-56
2021/12/20 07:18:04;;;;;;;;;;;-1.10;99.90;;;;;;5014323;28;20047;-58
2021/12/20 07:20:31;;;;;;;;;;;-1.10;99.90;;;;;;4997105;28;20548;-57
2021/12/20 07:22:57;;;;;;;;;;;-1.10;99.90;;;;;;5002707;28;20067;-59
2021/12/20 07:25:24;;;;;;;;;;;-1.10;99.90;;;;;;5017615;28;20145;-56
2021/12/20 07:27:52;;;;;;;;;;;-1.10;99.90;;;;;;5009351;28;19925;-56
2021/12/20 07:30:19;;;;;;;;;;;-1.10;99.90;;;;;;4997131;28;19929;-58
2021/12/20 07:32:46;;;;;;;;;;;-1.10;99.90;;;;;;4997328;28;19926;-59
2021/12/20 07:35:12;;;;;;;;;;;-1.10;99.90;;;;;;4997481;28;19925;-58
2021/12/20 07:37:39;;;;;;;;;;;-1.10;99.90;;;;;;4998009;28;19925;-59
2021/12/20 07:40:07;;;;;;;;;;;-1.10;99.90;;;;;;4995963;28;19979;-59
2021/12/20 07:42:34;;;;;;;;;;;-1.10;99.90;;;;;;4997338;28;19925;-60
2021/12/20 07:45:01;;;;;;;;;;;-1.20;99.90;;;;;;5011766;28;19925;-61
2021/12/20 07:47:45;;;;;;;;;;;-1.20;99.90;;;;;;4996933;28;19925;-61
2021/12/20 07:50:12;;;;;;;;;;;-1.10;99.90;;;;;;5001300;28;20416;-59
2021/12/20 07:52:39;;;;;;;;;;;-0.90;99.90;;;;;;4995465;28;19922;-58
2021/12/20 07:55:06;;;;;;;;;;;-0.70;99.90;;;;;;4995840;28;20007;-65
2021/12/20 07:57:32;;;;;;;;;;;-0.50;99.90;;;;;;4996945;28;19933;-57
2021/12/20 07:59:59;;;;;;;;;;;-0.30;99.90;;;;;;4997274;28;19929;-57
2021/12/20 08:02:26;;;;;;;;;;;0.00;99.90;;;;;;4997526;28;19983;-58
2021/12/20 08:04:53;;;;;;;;;;;0.20;99.90;;;;;;4997479;28;19933;-58
2021/12/20 08:07:21;;;;;;;;;;;0.40;99.90;;;;;;4996442;28;20479;-58
2021/12/20 08:09:49;;;;;;;;;;;0.60;99.90;;;;;;4996129;28;20122;-60
2021/12/20 08:12:16;;;;;;;;;;;0.80;99.90;;;;;;4996741;28;19925;-59
2021/12/20 08:14:43;;;;;;;;;;;1.00;99.90;;;;;;4996793;28;19931;-61
2021/12/20 08:17:10;;;;;;;;;;;1.00;99.90;;;;;;5005424;28;19932;-62
2021/12/20 08:19:37;;;;;;;;;;;1.10;99.90;;;;;;5008180;28;20019;-59
2021/12/20 08:22:04;;;;;;;;;;;1.00;99.90;;;;;;5016229;28;20464;-59
2021/12/20 08:24:31;;;;;;;;;;;1.00;99.90;;;;;;5015667;28;19925;-59
2021/12/20 08:26:57;;;;;;;;;;;0.90;99.90;;;;;;5014452;28;19925;-58
2021/12/20 08:29:24;;;;;;;;;;;0.90;99.90;;;;;;5015504;28;19964;-59
2021/12/20 08:31:51;;;;;;;;;;;0.80;99.90;;;;;;5015589;28;19960;-59
2021/12/20 08:34:17;;;;;;;;;;;0.70;99.90;;;;;;5016101;28;19929;-59
2021/12/20 08:36:44;;;;;;;;;;;0.70;99.90;;;;;;5015988;28;19925;-59
2021/12/20 08:39:17;;;;;;;;;;;0.70;99.90;;;;;;5014511;28;19925;-58
2021/12/20 08:41:44;;;;;;;;;;;0.70;99.90;;;;;;5014475;28;19991;-58
2021/12/20 08:44:11;;;;;;;;;;;0.90;99.90;;;;;;5016091;28;20311;-61
2021/12/20 08:46:37;;;;;;;;;;;1.10;99.90;;;;;;5015662;28;19929;-58
2021/12/20 08:49:04;;;;;;;;;;;1.20;99.90;;;;;;5015785;28;20462;-58
2021/12/20 08:51:31;;;;;;;;;;;1.40;99.90;;;;;;5015854;28;19927;-58
2021/12/20 08:53:57;;;;;;;;;;;1.70;99.90;;;;;;5015342;28;20025;-59
2021/12/20 08:56:25;;;;;;;;;;;2.00;99.90;;;;;;5016848;28;20474;-58
2021/12/20 08:58:52;;;;;;;;;;;2.20;99.90;;;;;;5014828;28;19925;-59
2021/12/20 09:01:18;;;;;;;;;;;2.40;99.90;;;;;;5015808;28;19925;-59
2021/12/20 09:03:45;;;;;;;;;;;2.50;99.90;;;;;;5015234;28;20738;-59
2021/12/20 09:06:13;;;;;;;;;;;2.70;99.90;;;;;;5015877;28;19921;-59
2021/12/20 09:08:41;;;;;;;;;;;2.90;99.90;;;;;;5015297;28;20015;-59
2021/12/20 09:11:09;;;;;;;;;;;3.00;99.90;;;;;;5015273;28;20454;-59
2021/12/20 09:13:35;;;;;;;;;;;3.10;99.90;;;;;;5015864;28;19983;-60
2021/12/20 09:16:02;;;;;;;;;;;3.30;99.90;;;;;;5015241;28;20474;-60
2021/12/20 09:18:29;;;;;;;;;;;3.50;99.90;;;;;;5010770;28;19933;-60
2021/12/20 09:20:56;;;;;;;;;;;3.60;99.90;;;;;;4999526;28;19929;-59
2021/12/20 09:23:26;;;;;;;;;;;3.70;99.90;;;;;;5015994;28;19925;-60
2021/12/20 09:25:53;;;;;;;;;;;3.70;99.90;;;;;;5013695;28;20421;-59
2021/12/20 09:28:19;;;;;;;;;;;3.80;99.90;;;;;;5016094;28;19925;-60
2021/12/20 09:30:46;;;;;;;;;;;3.90;99.90;;;;;;5014208;28;20164;-59
2021/12/20 09:33:14;;;;;;;;;;;4.10;99.90;;;;;;5016020;28;20555;-61
2021/12/20 09:35:41;;;;;;;;;;;4.20;99.90;;;;;;5016528;28;20578;-57
2021/12/20 09:38:11;;;;;;;;;;;4.40;99.90;;;;;;5015808;28;19925;-57
2021/12/20 09:40:40;;;;;;;;;;;4.50;99.90;;;;;;5016147;28;19925;-62
2021/12/20 09:43:09;;;;;;;;;;;4.80;99.90;;;;;;5016949;28;19925;-60
2021/12/20 09:45:36;;;;;;;;;;;5.00;99.90;;;;;;5014805;28;20465;-61
2021/12/20 09:48:04;;;;;;;;;;;5.20;99.90;;;;;;5013585;28;20389;-60
2021/12/20 09:50:32;;;;;;;;;;;5.30;99.90;;;;;;5018018;28;19932;-61
2021/12/20 09:53:03;;;;;;;;;;;5.40;99.90;;;;;;5018550;28;20319;-61
2021/12/20 09:55:31;;;;;;;;;;;5.50;99.90;;;;;;5019638;28;19987;-60
2021/12/20 09:57:59;;;;;;;;;;;5.60;99.90;;;;;;5019713;28;19971;-60
2021/12/20 10:00:26;;;;;;;;;;;5.70;99.90;;;;;;5018586;28;19925;-60
2021/12/20 10:02:53;;;;;;;;;;;5.70;99.90;;;;;;5019279;28;20384;-60
2021/12/20 10:05:20;;;;;;;;;;;5.90;99.90;;;;;;5018853;28;19932;-60
2021/12/20 10:07:50;;;;;;;;;;;6.00;99.90;;;;;;5019063;28;19979;-60
2021/12/20 10:10:33;;;;;;;;;;;6.00;99.90;;;;;;5018239;28;19971;-60
2021/12/20 10:13:00;;;;;;;;;;;6.10;99.90;;;;;;5018990;28;19925;-60
2021/12/20 10:15:34;;;;;;;;;;;6.10;99.90;;;;;;5017789;28;20280;-60
2021/12/20 10:18:01;;;;;;;;;;;6.20;99.90;;;;;;5018676;28;20352;-60
2021/12/20 10:20:29;;;;;;;;;;;6.30;99.90;;;;;;5017058;28;19952;-59
2021/12/20 10:23:08;;;;;;;;;;;6.30;99.90;;;;;;5018309;28;20665;-60
2021/12/20 10:25:35;;;;;;;;;;;6.40;99.90;;;;;;5019217;28;20204;-60
2021/12/20 10:28:04;;;;;;;;;;;6.50;99.90;;;;;;5018925;28;19929;-58
2021/12/20 10:30:32;;;;;;;;;;;6.60;99.90;;;;;;5018087;28;19956;-59
2021/12/20 10:32:59;;;;;;;;;;;6.60;99.90;;;;;;5018757;28;20678;-59
2021/12/20 10:35:27;;;;;;;;;;;6.60;99.90;;;;;;5019133;28;20023;-59
2021/12/20 10:37:56;;;;;;;;;;;6.70;99.90;;;;;;5018161;28;19929;-59
2021/12/20 10:40:22;;;;;;;;;;;6.80;99.90;;;;;;5017297;28;20065;-59
2021/12/20 10:42:50;;;;;;;;;;;6.80;99.90;;;;;;5017836;28;19986;-59
2021/12/20 10:45:19;;;;;;;;;;;6.90;99.90;;;;;;5018899;28;19932;-59
2021/12/20 10:47:47;;;;;;;;;;;7.10;99.90;;;;;;5018731;28;19979;-60
2021/12/20 10:50:19;;;;;;;;;;;7.10;99.90;;;;;;5006990;28;19960;-57
2021/12/20 10:52:46;;;;;;;;;;;7.30;99.90;;;;;;4998201;28;19983;-57
2021/12/20 10:55:13;;;;;;;;;;;7.40;99.90;;;;;;4998095;28;19980;-60
2021/12/20 10:57:39;;;;;;;;;;;7.60;99.90;;;;;;4998875;28;19932;-60
2021/12/20 11:00:14;;;;;;;;;;;7.80;99.90;;;;;;4997406;28;19953;-60
2021/12/20 11:03:18;;;;;;;;;;;8.00;99.90;;;;;;4998049;28;19927;-59
2021/12/20 11:11:15;;;;;;;;;;;8.50;99.90;;;;;;4997732;28;19932;-60
2021/12/20 11:13:42;;;;;;;;;;;8.50;99.90;;;;;;4997871;28;19957;-60
2021/12/20 11:16:29;;;;;;;;;;;8.50;99.90;;;;;;4998949;28;19929;-60
2021/12/20 11:19:14;;;;;;;;;;;8.60;99.90;;;;;;5006243;28;19925;-60
2021/12/20 11:21:45;;;;;;;;;;;8.60;99.90;;;;;;5017734;28;19925;-61
2021/12/20 11:24:14;;;;;;;;;;;8.60;99.90;;;;;;5017402;28;19925;-60
2021/12/20 11:26:40;;;;;;;;;;;8.50;99.90;;;;;;5006003;28;19921;-60
2021/12/20 11:29:08;;;;;;;;;;;8.50;99.90;;;;;;4997065;28;19925;-60
2021/12/20 11:31:37;;;;;;;;;;;8.40;99.90;;;;;;4998327;28;19976;-60
2021/12/20 11:34:04;;;;;;;;;;;8.40;99.90;;;;;;4997630;28;19928;-57
2021/12/20 11:36:31;;;;;;;;;;;8.40;99.90;;;;;;4997991;28;19929;-57
2021/12/20 11:38:58;;;;;;;;;;;8.50;99.90;;;;;;4996766;28;19929;-60
2021/12/20 11:41:29;;;;;;;;;;;8.50;99.90;;;;;;4996888;28;20550;-57
2021/12/20 11:43:56;;;;;;;;;;;8.60;99.90;;;;;;4994717;28;20348;-58
2021/12/20 11:46:25;;;;;;;;;;;8.60;99.90;;;;;;4997092;28;20390;-58
2021/12/20 11:48:52;;;;;;;;;;;8.70;99.90;;;;;;4998119;28;20056;-58
2021/12/20 11:51:18;;;;;;;;;;;8.80;99.90;;;;;;5015938;28;19924;-58
2021/12/20 11:53:45;;;;;;;;;;;8.80;99.90;;;;;;5016731;28;20081;-58
2021/12/20 11:56:12;;;;;;;;;;;8.80;99.90;;;;;;5016744;28;20306;-57
2021/12/20 11:58:44;;;;;;;;;;;8.90;99.90;;;;;;5015368;28;19925;-57
2021/12/20 12:01:16;;;;;;;;;;;9.00;99.90;;;;;;5015264;28;19932;-60
2021/12/20 12:03:51;;;;;;;;;;;9.10;99.90;;;;;;5016805;28;19925;-60
2021/12/20 12:06:29;;;;;;;;;;;9.10;99.90;;;;;;5016710;28;19991;-57
2021/12/20 12:08:58;;;;;;;;;;;9.10;99.90;;;;;;5018907;28;19929;-57
2021/12/20 12:11:41;;;;;;;;;;;9.10;99.90;;;;;;5011306;28;19925;-59
2021/12/20 12:14:18;;;;;;;;;;;9.10;99.90;;;;;;4994275;28;20491;-59
2021/12/20 12:16:51;;;;;;;;;;;9.10;99.90;;;;;;5002879;28;19932;-60
2021/12/20 12:19:36;;;;;;;;;;;9.00;99.90;;;;;;5015632;28;20373;-60
2021/12/20 12:22:03;;;;;;;;;;;9.00;99.90;;;;;;5016912;28;19932;-60
2021/12/20 12:24:43;;;;;;;;;;;9.00;99.90;;;;;;5016733;28;19925;-60
2021/12/20 12:27:37;;;;;;;;;;;8.90;99.90;;;;;;5011947;28;19953;-60
2021/12/20 12:30:12;;;;;;;;;;;8.90;99.90;;;;;;4995796;28;20412;-60
2021/12/20 12:32:48;;;;;;;;;;;8.80;99.90;;;;;;4997136;28;19960;-59
2021/12/20 12:35:47;;;;;;;;;;;8.80;99.90;;;;;;5003484;28;19925;-60
2021/12/20 12:38:16;;;;;;;;;;;8.60;99.90;;;;;;5015561;28;20067;-60
2021/12/20 12:40:43;;;;;;;;;;;8.50;99.90;;;;;;5015247;28;19925;-60
2021/12/20 12:43:10;;;;;;;;;;;8.20;99.90;;;;;;5017448;28;19947;-60
2021/12/20 12:45:56;;;;;;;;;;;8.10;99.90;;;;;;5016952;28;20300;-60
2021/12/20 12:48:43;;;;;;;;;;;7.90;99.90;;;;;;5016825;28;19932;-60
2021/12/20 12:51:30;;;;;;;;;;;7.90;99.90;;;;;;5014561;28;20333;-59
2021/12/20 12:53:57;;;;;;;;;;;7.80;99.90;;;;;;5016765;28;19925;-60
2021/12/20 12:56:26;;;;;;;;;;;7.70;99.90;;;;;;5016326;28;19921;-60
2021/12/20 12:59:09;;;;;;;;;;;7.70;99.90;;;;;;5015495;28;20276;-60
2021/12/20 13:01:37;;;;;;;;;;;7.60;99.90;;;;;;5014729;28;20930;-58
2021/12/20 13:04:04;;;;;;;;;;;7.50;99.90;;;;;;5012642;28;19956;-57
2021/12/20 13:06:31;;;;;;;;;;;7.50;99.90;;;;;;5015847;28;20023;-58
2021/12/20 13:09:01;;;;;;;;;;;7.30;99.90;;;;;;5014495;28;20548;-58
2021/12/20 13:11:30;;;;;;;;;;;7.20;99.90;;;;;;5015095;28;19931;-59
2021/12/20 13:14:06;;;;;;;;;;;7.00;99.90;;;;;;5016259;28;20369;-60
2021/12/20 13:16:35;;;;;;;;;;;6.80;99.90;;;;;;5016326;28;20426;-59
2021/12/20 13:19:05;;;;;;;;;;;6.60;99.90;;;;;;5016575;28;19925;-60
2021/12/20 13:21:48;;;;;;;;;;;6.50;99.90;;;;;;5016282;28;19971;-60
2021/12/20 13:24:16;;;;;;;;;;;6.60;99.90;;;;;;5016916;28;19929;-61
2021/12/20 13:26:43;;;;;;;;;;;6.60;99.90;;;;;;5018765;28;20355;-60
2021/12/20 13:29:16;;;;;;;;;;;6.50;99.90;;;;;;5018879;28;19924;-61
2021/12/20 13:31:43;;;;;;;;;;;6.20;99.90;;;;;;5019581;28;19956;-60
2021/12/20 13:34:14;;;;;;;;;;;5.80;99.90;;;;;;5019432;28;20363;-60
2021/12/20 13:36:50;;;;;;;;;;;5.50;99.90;;;;;;5019949;28;19925;-60
2021/12/20 13:39:17;;;;;;;;;;;5.10;99.90;;;;;;5019204;28;19948;-60
2021/12/20 13:41:44;;;;;;;;;;;4.80;99.90;;;;;;5019478;28;19925;-60
2021/12/20 13:44:15;;;;;;;;;;;4.60;99.90;;;;;;5020064;28;19975;-60
2021/12/20 13:46:44;;;;;;;;;;;4.30;99.90;;;;;;5019456;28;19925;-60
2021/12/20 13:49:11;;;;;;;;;;;4.10;99.90;;;;;;5019122;28;19932;-60
2021/12/20 13:51:43;;;;;;;;;;;3.90;99.90;;;;;;5020067;28;19925;-59
2021/12/20 13:54:14;;;;;;;;;;;3.90;99.90;;;;;;5018944;28;19925;-60
2021/12/20 13:56:42;;;;;;;;;;;3.90;99.90;;;;;;5020023;28;19928;-60
2021/12/20 13:59:09;;;;;;;;;;;4.00;99.90;;;;;;5018714;28;20025;-60
2021/12/20 14:01:37;;;;;;;;;;;4.20;99.90;;;;;;5019382;28;20024;-60
2021/12/20 14:04:03;;;;;;;;;;;4.20;99.90;;;;;;5001725;28;20379;-60
2021/12/20 14:06:34;;;;;;;;;;;4.20;99.90;;;;;;5019920;28;19921;-60
2021/12/20 14:09:07;;;;;;;;;;;4.10;99.90;;;;;;5018639;28;20848;-60
2021/12/20 14:11:34;;;;;;;;;;;4.00;99.90;;;;;;5019300;28;20341;-60
2021/12/20 14:14:11;;;;;;;;;;;3.90;99.90;;;;;;5019802;28;19963;-60
2021/12/20 14:16:57;;;;;;;;;;;3.80;99.90;;;;;;5018662;28;19932;-60
2021/12/20 14:19:42;;;;;;;;;;;3.60;99.90;;;;;;5006651;28;19929;-60
2021/12/20 14:22:09;;;;;;;;;;;3.50;99.90;;;;;;4999843;28;19921;-60